Portada
METAR-TAF:

METAR-TAF

Aeroports :

Lanai City, Hawaii, Estats Units d'Amèrica

latitud: 20-47N, longitud: 156-57W, altitud: 399 m

Observació

L'informe es va fer fa 18 minuts, a les 04:56 UTC
Vent 13 kt del Est/Nord-Est
Temperatura 22°C
Humitat 94%
Pressió 1019 hPa
Visibilitat: 16.1 km
Cel clar

METAR: PHNY 260456Z AUTO 07013KT 10SM CLR 22/21 A3010 RMK AO2 SLP172 T02170211

Hora: 19:14 (05:14 UTC)

Pronòstic

L'informe es va fer fa 1 hora i 14 minuts, a les 04:00 UTC
Pronòstic vàlid del 26 a les 04 UTC al 26 a les 24 UTC
Vent 10 kt del Est/Nord-Est amb ràfegues de 18 kt
Visibilitat: 10 km
Escasses núvols a una alçada de 2000 ft
Núvols disperses a una alçada de 3500 ft
A partir de les 26 a les 1900 UTC
Vent 7 kt del Sud-Oest
Visibilitat: 10 km
Núvols disperses a una alçada de 2000 ft
Cel ennuvolat a una alçada de 3500 ft

TAF: PHNY 260400Z 2604/2624 06010G18KT P6SM FEW020 SCT035 FM261900 22007KT P6SM SCT020 BKN035

Observacions i pronòstics meteorològics de més de 4000 aeroports (METAR i TAF).

Les estacions disponibles són els punts grocs i vermells al mapa.

Posi el ratolí al punt desitjat per veure el nom de l'estació.

Feu clic per veure les observacions i els pronòstics meteorològics.

Per canviar el mapa: feu clic els botons verds amb una creu de color negre per apropar; al botó verd amb un guió per allunyar la imatge; o en les fletxes verdes per a mapes adjacents.


METAR-TAF: